createdAt,value
2018-06-16T00:01:56.343Z,53.86
2018-06-16T00:04:28.364Z,53.99
2018-06-16T00:07:03.367Z,52.95
2018-06-16T00:09:37.309Z,53.48
2018-06-16T00:12:14.061Z,52.93
2018-06-16T00:14:50.364Z,51.94
2018-06-16T00:17:22.113Z,52.90
2018-06-16T00:19:53.517Z,51.88
2018-06-16T00:22:24.707Z,52.70
2018-06-16T00:25:15.351Z,53.50
2018-06-16T00:27:47.372Z,52.85
2018-06-16T00:30:18.280Z,53.13
2018-06-16T00:32:49.972Z,54.39
2018-06-16T00:38:25.585Z,54.65
2018-06-16T00:40:57.331Z,53.71
2018-06-16T00:43:32.287Z,53.99
2018-06-16T00:46:04.349Z,53.96
2018-06-16T00:48:41.624Z,54.38
2018-06-16T00:51:15.225Z,55.34
2018-06-16T00:53:48.591Z,54.82
2018-06-16T00:56:22.218Z,55.51
2018-06-16T01:02:01.002Z,54.88
2018-06-16T01:04:34.079Z,54.94
2018-06-16T01:07:04.583Z,54.76
2018-06-16T01:09:38.613Z,54.88
2018-06-16T01:12:09.796Z,55.47
2018-06-16T01:14:41.170Z,54.46
2018-06-16T01:17:16.593Z,54.07
2018-06-16T01:19:59.023Z,55.60
2018-06-16T01:22:32.829Z,56.24
2018-06-16T01:25:13.863Z,56.08
2018-06-16T01:27:55.482Z,55.96
2018-06-16T01:30:31.671Z,56.41
2018-06-16T01:33:08.385Z,57.33
2018-06-16T01:35:41.338Z,56.18
2018-06-16T01:38:15.196Z,55.63
2018-06-16T01:40:52.621Z,56.12
2018-06-16T01:43:44.807Z,55.83
2018-06-16T01:46:15.929Z,56.98
2018-06-16T01:48:48.615Z,56.94
2018-06-16T01:51:33.192Z,56.66
2018-06-16T01:54:04.759Z,55.80
2018-06-16T01:59:50.524Z,56.63
2018-06-16T02:02:25.693Z,55.86
2018-06-16T02:04:57.355Z,56.25
2018-06-16T02:07:28.655Z,55.65
2018-06-16T02:10:01.044Z,55.58
2018-06-16T02:12:35.221Z,55.54
2018-06-16T02:15:09.014Z,55.57
2018-06-16T02:17:41.863Z,55.95
2018-06-16T02:20:13.023Z,57.19
2018-06-16T02:22:44.427Z,56.95
2018-06-16T02:25:15.630Z,56.87
2018-06-16T02:27:48.620Z,56.55
2018-06-16T02:30:19.328Z,57.47
2018-06-16T02:33:00.261Z,57.71
2018-06-16T02:35:40.145Z,57.17
2018-06-16T02:38:15.024Z,57.28
2018-06-16T02:40:45.675Z,56.84
2018-06-16T02:43:18.531Z,57.63
2018-06-16T02:45:57.911Z,59.36
2018-06-16T02:48:31.728Z,57.67
2018-06-16T02:51:06.187Z,58.07
2018-06-16T02:53:43.750Z,57.89
2018-06-16T02:56:16.005Z,56.84
2018-06-16T02:58:52.108Z,57.58
2018-06-16T03:01:22.899Z,56.65
2018-06-16T03:03:54.224Z,58.86
2018-06-16T03:06:25.327Z,58.65
2018-06-16T03:08:56.385Z,58.19
2018-06-16T03:11:30.599Z,58.21
2018-06-16T03:14:02.994Z,57.87
2018-06-16T03:16:35.960Z,58.25
2018-06-16T03:22:00.589Z,59.60
2018-06-16T03:24:30.779Z,59.08
2018-06-16T03:27:02.682Z,58.62
2018-06-16T03:29:38.708Z,59.44
2018-06-16T03:32:12.384Z,59.66
2018-06-16T03:34:44.254Z,59.44
2018-06-16T03:37:32.485Z,60.76
2018-06-16T03:40:04.027Z,60.19
2018-06-16T03:42:37.395Z,60.11
2018-06-16T03:45:13.133Z,60.47
2018-06-16T03:47:44.063Z,61.15
2018-06-16T03:50:15.605Z,60.49
2018-06-16T03:52:56.056Z,60.65
2018-06-16T03:55:29.439Z,61.09
2018-06-16T03:58:05.389Z,60.81
2018-06-16T04:00:37.078Z,61.36
2018-06-16T04:05:48.179Z,60.70
2018-06-16T04:08:19.711Z,59.85
2018-06-16T04:10:50.998Z,61.07
2018-06-16T04:13:22.551Z,61.44
2018-06-16T04:15:55.709Z,60.66
2018-06-16T04:18:28.828Z,59.86
2018-06-16T04:21:01.311Z,60.13
2018-06-16T04:23:32.692Z,59.78
2018-06-16T04:26:04.345Z,60.40
2018-06-16T04:28:34.838Z,61.49
2018-06-16T04:31:06.119Z,60.66
2018-06-16T04:33:45.184Z,61.14
2018-06-16T04:36:15.805Z,61.08
2018-06-16T04:38:49.634Z,59.80
2018-06-16T04:41:23.561Z,59.38
2018-06-16T04:43:54.223Z,58.99
2018-06-16T04:46:24.731Z,60.39
2018-06-16T04:48:55.675Z,60.61
2018-06-16T04:51:27.065Z,60.46
2018-06-16T04:53:58.322Z,60.00
2018-06-16T04:56:29.220Z,60.42
2018-06-16T04:59:01.079Z,59.75
2018-06-16T05:01:33.013Z,59.39
2018-06-16T05:04:05.332Z,58.44
2018-06-16T05:06:38.768Z,58.08
2018-06-16T05:09:12.278Z,57.11
2018-06-16T05:11:43.629Z,57.70
2018-06-16T05:14:14.534Z,56.59
2018-06-16T05:16:47.925Z,56.46
2018-06-16T05:19:19.433Z,56.00
2018-06-16T05:21:49.779Z,55.30
2018-06-16T05:24:22.472Z,56.12
2018-06-16T05:26:53.836Z,55.58
2018-06-16T05:29:24.186Z,55.32
2018-06-16T05:31:55.876Z,54.75
2018-06-16T05:34:28.112Z,53.20
2018-06-16T05:36:59.781Z,52.47
2018-06-16T05:39:31.954Z,52.93
2018-06-16T05:42:03.452Z,53.82
2018-06-16T05:44:36.086Z,53.82
2018-06-16T05:47:07.966Z,53.28
2018-06-16T05:49:39.281Z,52.20
2018-06-16T05:52:17.659Z,51.69
2018-06-16T05:54:49.120Z,51.67
2018-06-16T05:57:22.891Z,51.97
2018-06-16T05:59:55.012Z,52.48
2018-06-16T06:02:26.292Z,51.40
2018-06-16T06:04:58.696Z,51.61
2018-06-16T06:07:33.390Z,51.33
2018-06-16T06:10:07.970Z,50.14
2018-06-16T06:12:39.142Z,49.62
2018-06-16T06:17:57.102Z,49.14
2018-06-16T06:20:39.351Z,49.09
2018-06-16T06:23:10.936Z,49.96
2018-06-16T06:25:45.738Z,49.25
2018-06-16T06:28:18.805Z,49.93
2018-06-16T06:30:50.314Z,49.11
2018-06-16T06:33:23.640Z,48.78
2018-06-16T06:35:54.973Z,48.41
2018-06-16T06:38:25.421Z,49.81
2018-06-16T06:43:41.768Z,49.59
2018-06-16T06:46:23.060Z,49.18
2018-06-16T06:48:55.792Z,48.89
2018-06-16T06:51:32.550Z,48.47
2018-06-16T06:54:05.128Z,48.37
2018-06-16T06:56:46.687Z,49.04
2018-06-16T06:59:20.650Z,50.04
2018-06-16T07:01:54.226Z,48.60
2018-06-16T07:04:25.767Z,48.39
2018-06-16T07:07:02.814Z,49.32
2018-06-16T07:09:34.187Z,48.20
2018-06-16T07:12:05.385Z,47.26
2018-06-16T07:14:37.134Z,46.48
2018-06-16T07:17:10.939Z,46.24
2018-06-16T07:19:53.564Z,45.79
2018-06-16T07:22:27.903Z,44.22
2018-06-16T07:28:21.442Z,44.07
2018-06-16T07:30:55.039Z,44.25
2018-06-16T07:33:28.227Z,43.17
2018-06-16T07:36:01.512Z,42.17
2018-06-16T07:38:34.449Z,42.66
2018-06-16T07:41:06.136Z,42.43
2018-06-16T07:43:45.034Z,42.62
2018-06-16T07:46:17.639Z,43.38
2018-06-16T07:48:49.167Z,42.71
2018-06-16T07:51:26.182Z,40.53
2018-06-16T07:56:46.240Z,41.07
2018-06-16T07:59:18.844Z,41.21
2018-06-16T08:01:51.215Z,40.85
2018-06-16T08:04:32.530Z,39.31
2018-06-16T08:07:07.411Z,39.04
2018-06-16T08:09:39.902Z,38.73
2018-06-16T08:12:10.717Z,37.97
2018-06-16T08:14:41.235Z,38.56
2018-06-16T08:17:15.709Z,39.34
2018-06-16T08:19:49.517Z,40.49
2018-06-16T08:22:23.381Z,40.20
2018-06-16T08:24:55.971Z,39.96
2018-06-16T08:27:27.494Z,39.91
2018-06-16T08:29:58.117Z,39.62
2018-06-16T08:32:30.679Z,38.58
2018-06-16T08:35:03.990Z,39.30
2018-06-16T08:37:36.400Z,39.65
2018-06-16T08:40:08.295Z,38.65
2018-06-16T08:42:41.840Z,37.34
2018-06-16T08:45:25.369Z,38.16
2018-06-16T08:50:46.519Z,37.56
2018-06-16T08:53:26.227Z,37.25
2018-06-16T08:58:47.246Z,37.33
2018-06-16T09:01:21.212Z,35.92
2018-06-16T09:04:01.484Z,35.49
2018-06-16T09:06:57.120Z,35.93
2018-06-16T09:09:38.139Z,35.40
2018-06-16T09:12:17.588Z,36.31
2018-06-16T09:14:54.523Z,36.66
2018-06-16T09:21:09.965Z,33.58
2018-06-16T09:23:46.022Z,34.25
2018-06-16T09:26:34.134Z,32.06
2018-06-16T09:29:29.951Z,33.35
2018-06-16T09:32:17.659Z,33.01
2018-06-16T09:34:49.551Z,32.02
2018-06-16T09:37:36.531Z,32.00
2018-06-16T09:40:07.756Z,31.41
2018-06-16T09:42:41.409Z,32.81
2018-06-16T09:45:28.086Z,35.41
2018-06-16T09:48:11.836Z,33.08
2018-06-16T09:50:56.394Z,33.09
2018-06-16T09:53:41.743Z,33.04
2018-06-16T09:56:21.361Z,33.44
2018-06-16T09:58:54.827Z,33.72
2018-06-16T10:01:29.795Z,32.77
2018-06-16T10:04:00.402Z,31.71
2018-06-16T10:06:45.278Z,32.21
2018-06-16T10:09:19.979Z,32.49
2018-06-16T10:12:17.520Z,31.75
2018-06-16T10:14:50.339Z,31.38
2018-06-16T10:17:21.284Z,30.73
2018-06-16T10:19:54.230Z,29.73
2018-06-16T10:22:32.579Z,31.37
2018-06-16T10:25:05.145Z,30.81
2018-06-16T10:27:41.343Z,31.77
2018-06-16T10:30:40.684Z,31.86
2018-06-16T10:33:16.954Z,33.05
2018-06-16T10:35:58.334Z,32.57
2018-06-16T10:38:33.571Z,34.45
2018-06-16T10:41:11.108Z,33.25
2018-06-16T10:43:51.666Z,32.07
2018-06-16T10:46:26.751Z,31.68
2018-06-16T10:49:01.293Z,31.10
2018-06-16T10:51:36.209Z,29.41
2018-06-16T10:54:13.005Z,29.31
2018-06-16T10:56:44.644Z,29.47
2018-06-16T10:59:15.126Z,28.17
2018-06-16T11:01:48.306Z,28.70
2018-06-16T11:04:27.009Z,28.13
2018-06-16T11:07:17.195Z,29.91
2018-06-16T11:09:48.499Z,30.07
2018-06-16T11:12:22.550Z,30.50
2018-06-16T11:14:54.816Z,31.61
2018-06-16T11:17:36.020Z,29.02
2018-06-16T11:20:09.135Z,28.24
2018-06-16T11:22:41.501Z,27.17
2018-06-16T11:25:13.462Z,28.52
2018-06-16T11:27:48.828Z,28.16
2018-06-16T11:30:31.110Z,30.64
2018-06-16T11:33:09.303Z,29.56
2018-06-16T11:35:43.522Z,29.23
2018-06-16T11:38:22.233Z,28.87
2018-06-16T11:40:56.088Z,31.33
2018-06-16T11:43:34.909Z,29.73
2018-06-16T11:46:16.338Z,28.88
2018-06-16T11:48:52.664Z,28.75
2018-06-16T11:51:27.675Z,27.58
2018-06-16T11:53:58.736Z,26.79
2018-06-16T11:56:30.077Z,26.69
2018-06-16T11:59:00.405Z,28.54
2018-06-16T12:01:37.463Z,28.64
2018-06-16T12:04:18.280Z,29.67
2018-06-16T12:06:50.352Z,29.64
2018-06-16T12:09:27.057Z,29.30
2018-06-16T12:12:04.410Z,29.71
2018-06-16T12:14:35.294Z,29.92
2018-06-16T12:17:06.845Z,29.92
2018-06-16T12:19:38.611Z,30.30
2018-06-16T12:22:10.449Z,30.35
2018-06-16T12:24:47.681Z,32.13
2018-06-16T12:27:28.011Z,32.95
2018-06-16T12:29:58.796Z,33.45
2018-06-16T12:32:32.634Z,33.66
2018-06-16T12:35:07.200Z,34.40
2018-06-16T12:37:37.761Z,34.25
2018-06-16T12:42:56.411Z,34.61
2018-06-16T12:45:30.502Z,34.79
2018-06-16T12:48:06.361Z,36.01
2018-06-16T12:50:38.499Z,35.30
2018-06-16T12:53:12.124Z,36.19
2018-06-16T12:55:50.449Z,36.03
2018-06-16T12:58:27.301Z,35.83
2018-06-16T13:01:00.107Z,36.38
2018-06-16T13:03:32.082Z,36.51
2018-06-16T13:06:02.424Z,36.43
2018-06-16T13:08:40.210Z,35.90
2018-06-16T13:11:11.683Z,36.08
2018-06-16T13:13:50.635Z,35.30
2018-06-16T13:16:21.446Z,35.86
2018-06-16T13:18:52.508Z,35.98
2018-06-16T13:21:22.768Z,36.28
2018-06-16T13:23:53.226Z,35.83
2018-06-16T13:26:25.381Z,36.54
2018-06-16T13:28:56.491Z,35.55
2018-06-16T13:31:32.128Z,35.40
2018-06-16T13:34:07.990Z,35.48
2018-06-16T13:36:40.036Z,34.48
2018-06-16T13:39:12.983Z,34.27
2018-06-16T13:41:43.872Z,34.81
2018-06-16T13:44:18.160Z,32.72
2018-06-16T13:46:57.067Z,31.81
2018-06-16T13:49:28.905Z,32.48
2018-06-16T13:52:01.127Z,31.66
2018-06-16T13:54:32.947Z,31.35
2018-06-16T13:57:04.453Z,30.74
2018-06-16T13:59:34.843Z,30.90
2018-06-16T14:02:06.952Z,29.66
2018-06-16T14:04:38.631Z,29.18
2018-06-16T14:07:08.722Z,28.28
2018-06-16T14:09:58.958Z,28.56
2018-06-16T14:12:50.408Z,26.18
2018-06-16T14:15:30.136Z,27.23
2018-06-16T14:18:03.284Z,26.98
2018-06-16T14:20:37.333Z,26.38
2018-06-16T14:23:09.803Z,25.93
2018-06-16T14:25:41.650Z,26.89
2018-06-16T14:28:17.247Z,26.71
2018-06-16T14:30:51.666Z,26.68
2018-06-16T14:33:29.557Z,27.06
2018-06-16T14:36:00.200Z,26.63
2018-06-16T14:38:32.290Z,27.20
2018-06-16T14:41:02.978Z,27.56
2018-06-16T14:43:34.044Z,26.99
2018-06-16T14:46:07.017Z,27.05
2018-06-16T14:48:41.994Z,26.87
2018-06-16T14:51:12.269Z,27.74
2018-06-16T14:53:43.632Z,28.44
2018-06-16T14:56:15.229Z,30.18
2018-06-16T14:58:46.061Z,29.58
2018-06-16T15:01:19.585Z,30.69
2018-06-16T15:03:49.813Z,30.65
2018-06-16T15:06:22.947Z,31.81
2018-06-16T15:08:59.836Z,31.96
2018-06-16T15:11:31.059Z,31.83
2018-06-16T15:14:01.602Z,31.10
2018-06-16T15:16:32.485Z,31.83
2018-06-16T15:19:03.552Z,31.02
2018-06-16T15:21:37.116Z,32.07
2018-06-16T15:24:10.522Z,33.19
2018-06-16T15:26:42.651Z,33.35
2018-06-16T15:29:16.907Z,32.81
2018-06-16T15:31:48.315Z,34.11
2018-06-16T15:34:20.398Z,32.97
2018-06-16T15:36:56.211Z,32.88
2018-06-16T15:39:28.852Z,33.19
2018-06-16T15:42:00.195Z,32.86
2018-06-16T15:44:37.272Z,32.88
2018-06-16T15:48:47.314Z,33.45
2018-06-16T15:51:17.977Z,32.86
2018-06-16T15:53:51.326Z,34.39
2018-06-16T15:56:30.489Z,33.95
2018-06-16T15:59:03.445Z,34.71
2018-06-16T16:01:35.431Z,35.77
2018-06-16T16:04:08.530Z,36.25
2018-06-16T16:06:40.273Z,35.46
2018-06-16T16:09:11.979Z,35.62
2018-06-16T16:11:44.541Z,41.57
2018-06-16T16:14:20.097Z,52.52
2018-06-16T16:16:51.439Z,58.63
2018-06-16T16:19:24.599Z,61.15
2018-06-16T16:22:03.288Z,63.28
2018-06-16T16:24:34.839Z,65.29
2018-06-16T16:27:05.471Z,67.02
2018-06-16T16:29:39.098Z,66.44
2018-06-16T16:32:12.383Z,66.41
2018-06-16T16:34:47.402Z,66.31
2018-06-16T16:37:19.727Z,67.24
2018-06-16T16:39:56.614Z,67.74
2018-06-16T16:42:41.222Z,67.90
2018-06-16T16:45:16.720Z,66.99
2018-06-16T16:47:49.350Z,64.96
2018-06-16T16:50:19.703Z,64.67
2018-06-16T16:52:54.196Z,66.06
2018-06-16T16:55:30.038Z,65.57
2018-06-16T16:58:00.583Z,63.74
2018-06-16T17:00:41.536Z,64.48
2018-06-16T17:03:14.499Z,64.67
2018-06-16T17:08:53.269Z,64.10
2018-06-16T17:11:25.227Z,63.58
2018-06-16T17:14:00.504Z,62.92
2018-06-16T17:16:35.459Z,63.24
2018-06-16T17:19:08.946Z,62.96
2018-06-16T17:21:43.424Z,63.08
2018-06-16T17:24:16.240Z,63.44
2018-06-16T17:26:48.157Z,63.90
2018-06-16T17:29:19.705Z,63.16
2018-06-16T17:31:54.483Z,63.41
2018-06-16T17:34:31.542Z,63.08
2018-06-16T17:40:14.803Z,62.08
2018-06-16T17:42:48.128Z,61.74
2018-06-16T17:45:36.706Z,62.68
2018-06-16T17:48:09.352Z,62.07
2018-06-16T17:50:55.229Z,61.89
2018-06-16T17:53:31.352Z,61.13
2018-06-16T17:56:06.775Z,60.82
2018-06-16T17:58:42.888Z,60.62
2018-06-16T18:01:15.325Z,59.88
2018-06-16T18:06:50.538Z,59.74
2018-06-16T18:09:24.534Z,59.18
2018-06-16T18:11:56.352Z,59.33
2018-06-16T18:17:11.954Z,59.80
2018-06-16T18:19:43.870Z,60.85
2018-06-16T18:22:18.368Z,60.72
2018-06-16T18:24:51.113Z,59.83
2018-06-16T18:27:40.266Z,60.09
2018-06-16T18:30:29.914Z,60.88
2018-06-16T18:33:01.809Z,61.00
2018-06-16T18:35:39.418Z,61.74
2018-06-16T18:38:17.335Z,63.21
2018-06-16T18:40:50.321Z,65.02
2018-06-16T18:46:04.756Z,69.04
2018-06-16T18:48:37.128Z,69.83
2018-06-16T18:51:24.826Z,69.25
2018-06-16T18:54:00.364Z,70.72
2018-06-16T18:56:53.098Z,69.68
2018-06-16T19:02:38.310Z,67.43
2018-06-16T19:05:08.655Z,67.62
2018-06-16T19:07:40.703Z,67.41
2018-06-16T19:10:14.216Z,65.77
2018-06-16T19:12:47.156Z,66.01
2018-06-16T19:17:56.361Z,65.71
2018-06-16T19:20:37.667Z,65.46
2018-06-16T19:23:17.423Z,65.86
2018-06-16T19:25:53.132Z,60.69
2018-06-16T19:28:35.527Z,57.52
2018-06-16T19:31:13.377Z,56.15
2018-06-16T19:33:45.530Z,56.29
2018-06-16T19:36:43.494Z,55.72
2018-06-16T19:39:20.670Z,55.55
2018-06-16T19:42:06.333Z,56.60
2018-06-16T19:44:40.092Z,56.23
2018-06-16T19:55:12.285Z,57.12
2018-06-16T19:57:50.353Z,57.66
2018-06-16T20:01:10.040Z,56.83
2018-06-16T20:03:50.677Z,56.99
2018-06-16T20:06:23.828Z,56.76
2018-06-16T20:08:58.521Z,56.53
2018-06-16T20:11:37.141Z,56.43
2018-06-16T20:14:11.605Z,56.67
2018-06-16T20:16:46.402Z,55.44
2018-06-16T20:19:24.694Z,55.35
2018-06-16T20:21:58.851Z,56.44
2018-06-16T20:24:32.693Z,55.58
2018-06-16T20:27:06.625Z,56.06
2018-06-16T20:29:43.759Z,55.95
2018-06-16T20:32:17.928Z,55.11
2018-06-16T20:34:52.644Z,55.35
2018-06-16T20:37:25.983Z,56.28
2018-06-16T20:40:01.210Z,54.80
2018-06-16T20:42:34.777Z,54.15
2018-06-16T20:45:15.544Z,54.15
2018-06-16T20:47:49.711Z,53.79
2018-06-16T20:50:24.022Z,54.30
2018-06-16T20:52:57.495Z,54.01
2018-06-16T20:55:32.661Z,54.87
2018-06-16T20:58:04.447Z,54.25
2018-06-16T21:00:37.569Z,53.59
2018-06-16T21:03:08.156Z,53.52
2018-06-16T21:05:56.371Z,53.90
2018-06-16T21:08:34.321Z,54.12
2018-06-16T21:11:04.641Z,54.81
2018-06-16T21:13:35.696Z,54.48
2018-06-16T21:16:14.476Z,54.06
2018-06-16T21:18:49.677Z,53.67
2018-06-16T21:21:24.761Z,53.98
2018-06-16T21:23:55.761Z,54.02
2018-06-16T21:26:29.703Z,53.99
2018-06-16T21:29:02.893Z,53.83
2018-06-16T21:31:42.799Z,55.24
2018-06-16T21:34:15.061Z,54.78
2018-06-16T21:42:58.454Z,55.27
2018-06-16T21:48:20.307Z,55.05
2018-06-16T21:50:53.814Z,55.31
2018-06-16T21:53:31.279Z,55.84
2018-06-16T21:56:04.452Z,55.46
2018-06-16T21:59:11.232Z,55.24
2018-06-16T22:01:52.223Z,54.56
2018-06-16T22:07:11.420Z,54.84
2018-06-16T22:09:44.977Z,54.83
2018-06-16T22:12:23.702Z,55.23
2018-06-16T22:14:56.537Z,54.66
2018-06-16T22:17:37.925Z,55.27
2018-06-16T22:20:15.806Z,54.85
2018-06-16T22:22:52.090Z,54.70
2018-06-16T22:25:40.921Z,55.46
2018-06-16T22:28:27.269Z,55.17
2018-06-16T22:31:10.922Z,54.43
2018-06-16T22:33:43.513Z,54.72
2018-06-16T22:36:15.410Z,54.70
2018-06-16T22:38:46.748Z,54.09
2018-06-16T22:41:21.410Z,54.89
2018-06-16T22:43:57.985Z,55.28
2018-06-16T22:46:34.838Z,54.26
2018-06-16T22:49:11.702Z,54.00
2018-06-16T22:51:49.406Z,54.27
2018-06-16T22:54:22.891Z,53.90
2018-06-16T22:56:58.074Z,54.36
2018-06-16T22:59:37.027Z,53.72
2018-06-16T23:02:15.481Z,53.00
2018-06-16T23:04:48.835Z,54.00
2018-06-16T23:07:19.399Z,53.69
2018-06-16T23:10:01.633Z,52.97
2018-06-16T23:12:44.513Z,53.23
2018-06-16T23:18:07.272Z,53.17
2018-06-16T23:20:40.132Z,53.04
2018-06-16T23:26:20.124Z,53.34
2018-06-16T23:28:55.817Z,53.57
2018-06-16T23:31:31.409Z,53.88
2018-06-16T23:34:04.418Z,53.45
2018-06-16T23:36:35.638Z,53.92
2018-06-16T23:39:12.811Z,53.82
2018-06-16T23:41:46.396Z,53.64
2018-06-16T23:44:20.921Z,53.33
2018-06-16T23:46:57.640Z,52.79
2018-06-16T23:49:32.623Z,52.77
2018-06-16T23:52:05.254Z,52.96
2018-06-16T23:54:50.097Z,51.83
2018-06-16T23:57:37.208Z,51.86
